sensor_id;sensor_type;location;lat;lon;timestamp;pressure;altitude;pressure_sealevel;temperature;humidity
6565;BME280;3316;44.118;27.258;2022-12-28T00:01:11;102310.59;;;6.93;100.00
6565;BME280;3316;44.118;27.258;2022-12-28T00:03:37;102302.31;;;6.80;100.00
6565;BME280;3316;44.118;27.258;2022-12-28T00:06:03;102303.06;;;6.76;100.00
6565;BME280;3316;44.118;27.258;2022-12-28T00:08:29;102324.19;;;6.82;100.00
6565;BME280;3316;44.118;27.258;2022-12-28T00:11:06;102307.50;;;6.78;100.00
6565;BME280;3316;44.118;27.258;2022-12-28T00:13:34;102324.28;;;6.85;100.00
6565;BME280;3316;44.118;27.258;2022-12-28T00:16:07;102330.25;;;6.81;100.00
6565;BME280;3316;44.118;27.258;2022-12-28T00:18:34;102319.50;;;6.72;100.00
6565;BME280;3316;44.118;27.258;2022-12-28T00:21:00;102319.31;;;6.66;100.00
6565;BME280;3316;44.118;27.258;2022-12-28T00:23:26;102294.03;;;6.40;100.00
6565;BME280;3316;44.118;27.258;2022-12-28T00:25:52;102335.31;;;6.75;100.00
6565;BME280;3316;44.118;27.258;2022-12-28T00:28:18;102344.72;;;6.70;100.00
6565;BME280;3316;44.118;27.258;2022-12-28T00:30:44;102313.56;;;6.51;100.00
6565;BME280;3316;44.118;27.258;2022-12-28T00:33:09;102340.25;;;6.67;100.00
6565;BME280;3316;44.118;27.258;2022-12-28T00:35:35;102339.25;;;6.62;100.00
6565;BME280;3316;44.118;27.258;2022-12-28T00:38:00;102349.91;;;6.68;100.00
6565;BME280;3316;44.118;27.258;2022-12-28T00:40:26;102352.28;;;6.61;100.00
6565;BME280;3316;44.118;27.258;2022-12-28T00:42:51;102329.84;;;6.42;100.00
6565;BME280;3316;44.118;27.258;2022-12-28T00:45:17;102364.28;;;6.56;100.00
6565;BME280;3316;44.118;27.258;2022-12-28T00:47:42;102356.06;;;6.44;100.00
6565;BME280;3316;44.118;27.258;2022-12-28T00:50:08;102325.13;;;6.32;100.00
6565;BME280;3316;44.118;27.258;2022-12-28T00:52:34;102358.00;;;6.49;100.00
6565;BME280;3316;44.118;27.258;2022-12-28T00:54:59;102368.78;;;6.60;100.00
6565;BME280;3316;44.118;27.258;2022-12-28T00:57:25;102361.78;;;6.59;100.00
6565;BME280;3316;44.118;27.258;2022-12-28T00:59:51;102362.31;;;6.49;100.00
6565;BME280;3316;44.118;27.258;2022-12-28T01:02:16;102336.44;;;6.31;100.00
6565;BME280;3316;44.118;27.258;2022-12-28T01:04:42;102363.78;;;6.41;100.00
6565;BME280;3316;44.118;27.258;2022-12-28T01:07:07;102355.47;;;6.27;100.00
6565;BME280;3316;44.118;27.258;2022-12-28T01:09:32;102365.88;;;6.25;100.00
6565;BME280;3316;44.118;27.258;2022-12-28T01:11:58;102368.53;;;6.27;100.00
6565;BME280;3316;44.118;27.258;2022-12-28T01:14:23;102377.28;;;6.27;100.00
6565;BME280;3316;44.118;27.258;2022-12-28T01:16:49;102377.13;;;6.23;100.00
6565;BME280;3316;44.118;27.258;2022-12-28T01:19:18;102369.19;;;6.20;100.00
6565;BME280;3316;44.118;27.258;2022-12-28T01:21:47;102359.72;;;6.23;100.00
6565;BME280;3316;44.118;27.258;2022-12-28T01:24:13;102367.34;;;6.17;100.00
6565;BME280;3316;44.118;27.258;2022-12-28T01:26:38;102375.84;;;6.12;100.00
6565;BME280;3316;44.118;27.258;2022-12-28T01:29:04;102383.25;;;6.00;100.00
6565;BME280;3316;44.118;27.258;2022-12-28T01:31:29;102378.25;;;6.06;100.00
6565;BME280;3316;44.118;27.258;2022-12-28T01:33:55;102378.81;;;5.97;100.00
6565;BME280;3316;44.118;27.258;2022-12-28T01:36:28;102364.84;;;5.97;100.00
6565;BME280;3316;44.118;27.258;2022-12-28T01:38:58;102368.22;;;5.93;100.00
6565;BME280;3316;44.118;27.258;2022-12-28T01:41:25;102385.81;;;5.98;100.00
6565;BME280;3316;44.118;27.258;2022-12-28T01:46:20;102383.22;;;5.98;100.00
6565;BME280;3316;44.118;27.258;2022-12-28T01:48:57;102396.50;;;6.04;100.00
6565;BME280;3316;44.118;27.258;2022-12-28T01:51:24;102393.88;;;6.04;100.00
6565;BME280;3316;44.118;27.258;2022-12-28T01:53:53;102388.81;;;6.09;100.00
6565;BME280;3316;44.118;27.258;2022-12-28T01:56:20;102381.94;;;6.12;100.00
6565;BME280;3316;44.118;27.258;2022-12-28T01:58:47;102388.41;;;6.22;100.00
6565;BME280;3316;44.118;27.258;2022-12-28T02:01:13;102387.41;;;6.18;100.00
6565;BME280;3316;44.118;27.258;2022-12-28T02:03:39;102381.09;;;6.12;100.00
6565;BME280;3316;44.118;27.258;2022-12-28T02:06:08;102394.28;;;6.16;100.00
6565;BME280;3316;44.118;27.258;2022-12-28T02:08:45;102402.22;;;6.18;100.00
6565;BME280;3316;44.118;27.258;2022-12-28T02:11:15;102396.31;;;6.23;100.00
6565;BME280;3316;44.118;27.258;2022-12-28T02:13:45;102402.47;;;6.25;100.00
6565;BME280;3316;44.118;27.258;2022-12-28T02:16:11;102401.50;;;6.22;100.00
6565;BME280;3316;44.118;27.258;2022-12-28T02:18:38;102413.03;;;6.54;100.00
6565;BME280;3316;44.118;27.258;2022-12-28T02:21:25;102405.75;;;6.44;100.00
6565;BME280;3316;44.118;27.258;2022-12-28T02:37:46;102396.34;;;6.25;100.00
6565;BME280;3316;44.118;27.258;2022-12-28T02:42:42;102401.53;;;6.23;100.00
6565;BME280;3316;44.118;27.258;2022-12-28T02:48:23;102390.56;;;6.08;100.00
6565;BME280;3316;44.118;27.258;2022-12-28T02:54:33;102397.53;;;6.09;100.00
6565;BME280;3316;44.118;27.258;2022-12-28T03:00:19;102389.38;;;6.00;100.00
6565;BME280;3316;44.118;27.258;2022-12-28T03:08:18;102402.84;;;6.12;100.00
6565;BME280;3316;44.118;27.258;2022-12-28T03:10:51;102415.16;;;6.15;100.00
6565;BME280;3316;44.118;27.258;2022-12-28T03:13:53;102414.34;;;6.16;100.00
6565;BME280;3316;44.118;27.258;2022-12-28T03:18:49;102409.84;;;6.12;100.00
6565;BME280;3316;44.118;27.258;2022-12-28T03:21:36;102405.44;;;6.11;100.00
6565;BME280;3316;44.118;27.258;2022-12-28T03:24:21;102411.31;;;6.05;100.00
6565;BME280;3316;44.118;27.258;2022-12-28T03:27:08;102421.97;;;6.10;100.00
6565;BME280;3316;44.118;27.258;2022-12-28T03:30:02;102385.16;;;5.82;100.00
6565;BME280;3316;44.118;27.258;2022-12-28T03:32:48;102426.00;;;6.02;100.00
6565;BME280;3316;44.118;27.258;2022-12-28T03:35:14;102432.56;;;6.14;100.00
6565;BME280;3316;44.118;27.258;2022-12-28T03:38:01;102432.63;;;6.16;100.00
6565;BME280;3316;44.118;27.258;2022-12-28T03:40:46;102438.44;;;6.09;100.00
6565;BME280;3316;44.118;27.258;2022-12-28T03:43:28;102436.78;;;6.11;100.00
6565;BME280;3316;44.118;27.258;2022-12-28T03:46:21;102442.38;;;6.20;100.00
6565;BME280;3316;44.118;27.258;2022-12-28T03:48:49;102434.91;;;6.07;100.00
6565;BME280;3316;44.118;27.258;2022-12-28T03:51:18;102449.13;;;6.15;100.00
6565;BME280;3316;44.118;27.258;2022-12-28T03:53:45;102449.34;;;6.21;100.00
6565;BME280;3316;44.118;27.258;2022-12-28T03:56:14;102456.56;;;6.28;100.00
6565;BME280;3316;44.118;27.258;2022-12-28T03:58:40;102467.97;;;6.30;100.00
6565;BME280;3316;44.118;27.258;2022-12-28T04:01:06;102471.22;;;6.23;100.00
6565;BME280;3316;44.118;27.258;2022-12-28T04:03:32;102473.97;;;6.26;100.00
6565;BME280;3316;44.118;27.258;2022-12-28T04:05:58;102472.34;;;6.29;100.00
6565;BME280;3316;44.118;27.258;2022-12-28T04:08:23;102457.69;;;6.11;100.00
6565;BME280;3316;44.118;27.258;2022-12-28T04:10:49;102476.03;;;6.12;100.00
6565;BME280;3316;44.118;27.258;2022-12-28T04:13:14;102482.06;;;6.10;100.00
6565;BME280;3316;44.118;27.258;2022-12-28T04:15:40;102461.81;;;6.04;100.00
6565;BME280;3316;44.118;27.258;2022-12-28T04:18:05;102466.03;;;6.01;100.00
6565;BME280;3316;44.118;27.258;2022-12-28T04:20:31;102433.16;;;5.84;100.00
6565;BME280;3316;44.118;27.258;2022-12-28T04:22:56;102416.13;;;5.71;100.00
6565;BME280;3316;44.118;27.258;2022-12-28T04:25:21;102474.81;;;6.03;100.00
6565;BME280;3316;44.118;27.258;2022-12-28T04:27:47;102470.00;;;5.91;100.00
6565;BME280;3316;44.118;27.258;2022-12-28T04:30:12;102471.75;;;5.91;100.00
6565;BME280;3316;44.118;27.258;2022-12-28T04:32:38;102463.78;;;5.88;100.00
6565;BME280;3316;44.118;27.258;2022-12-28T04:35:03;102472.75;;;5.94;100.00
6565;BME280;3316;44.118;27.258;2022-12-28T04:37:29;102476.66;;;5.83;100.00
6565;BME280;3316;44.118;27.258;2022-12-28T04:39:54;102463.25;;;5.74;100.00
6565;BME280;3316;44.118;27.258;2022-12-28T04:42:20;102470.09;;;5.93;100.00
6565;BME280;3316;44.118;27.258;2022-12-28T04:44:45;102485.31;;;5.82;100.00
6565;BME280;3316;44.118;27.258;2022-12-28T04:47:11;102489.97;;;5.67;100.00
6565;BME280;3316;44.118;27.258;2022-12-28T04:49:37;102476.63;;;5.60;100.00
6565;BME280;3316;44.118;27.258;2022-12-28T04:52:03;102493.38;;;5.66;100.00
6565;BME280;3316;44.118;27.258;2022-12-28T04:54:28;102499.69;;;5.71;100.00
6565;BME280;3316;44.118;27.258;2022-12-28T04:56:53;102483.34;;;5.55;100.00
6565;BME280;3316;44.118;27.258;2022-12-28T04:59:19;102499.88;;;5.54;100.00
6565;BME280;3316;44.118;27.258;2022-12-28T05:01:44;102491.28;;;5.35;100.00
6565;BME280;3316;44.118;27.258;2022-12-28T05:04:10;102499.06;;;5.34;100.00
6565;BME280;3316;44.118;27.258;2022-12-28T05:06:35;102501.47;;;5.29;100.00
6565;BME280;3316;44.118;27.258;2022-12-28T05:09:01;102502.38;;;5.30;100.00
6565;BME280;3316;44.118;27.258;2022-12-28T05:11:27;102511.56;;;5.20;100.00
6565;BME280;3316;44.118;27.258;2022-12-28T05:13:54;102510.91;;;5.05;100.00
6565;BME280;3316;44.118;27.258;2022-12-28T05:16:21;102508.13;;;5.01;100.00
6565;BME280;3316;44.118;27.258;2022-12-28T05:18:48;102478.34;;;4.75;100.00
6565;BME280;3316;44.118;27.258;2022-12-28T05:21:17;102514.72;;;4.93;100.00
6565;BME280;3316;44.118;27.258;2022-12-28T05:23:43;102511.53;;;4.79;100.00
6565;BME280;3316;44.118;27.258;2022-12-28T05:26:14;102517.25;;;4.71;100.00
6565;BME280;3316;44.118;27.258;2022-12-28T05:28:40;102512.78;;;4.68;100.00
6565;BME280;3316;44.118;27.258;2022-12-28T05:31:09;102518.88;;;4.69;100.00
6565;BME280;3316;44.118;27.258;2022-12-28T05:33:35;102524.00;;;4.66;100.00
6565;BME280;3316;44.118;27.258;2022-12-28T05:36:12;102522.41;;;4.69;100.00
6565;BME280;3316;44.118;27.258;2022-12-28T05:38:38;102520.97;;;4.76;100.00
6565;BME280;3316;44.118;27.258;2022-12-28T05:41:16;102536.66;;;4.77;100.00
6565;BME280;3316;44.118;27.258;2022-12-28T05:43:43;102517.53;;;4.58;100.00
6565;BME280;3316;44.118;27.258;2022-12-28T05:46:17;102538.63;;;4.62;100.00
6565;BME280;3316;44.118;27.258;2022-12-28T05:48:44;102531.31;;;4.55;100.00
6565;BME280;3316;44.118;27.258;2022-12-28T05:51:11;102540.72;;;4.51;100.00
6565;BME280;3316;44.118;27.258;2022-12-28T05:53:38;102539.09;;;4.53;100.00
6565;BME280;3316;44.118;27.258;2022-12-28T05:58:33;102540.78;;;4.53;100.00
6565;BME280;3316;44.118;27.258;2022-12-28T06:01:06;102544.00;;;4.67;100.00
6565;BME280;3316;44.118;27.258;2022-12-28T06:03:33;102557.03;;;4.67;100.00
6565;BME280;3316;44.118;27.258;2022-12-28T06:06:09;102546.19;;;4.77;100.00
6565;BME280;3316;44.118;27.258;2022-12-28T06:08:35;102556.19;;;4.87;100.00
6565;BME280;3316;44.118;27.258;2022-12-28T06:11:03;102560.72;;;4.91;100.00
6565;BME280;3316;44.118;27.258;2022-12-28T06:13:29;102546.56;;;5.05;100.00
6565;BME280;3316;44.118;27.258;2022-12-28T06:15:55;102561.16;;;5.20;100.00
6565;BME280;3316;44.118;27.258;2022-12-28T06:18:20;102560.44;;;5.24;100.00
6565;BME280;3316;44.118;27.258;2022-12-28T06:20:46;102554.97;;;5.18;100.00
6565;BME280;3316;44.118;27.258;2022-12-28T06:23:12;102547.91;;;5.16;100.00
6565;BME280;3316;44.118;27.258;2022-12-28T06:25:37;102552.53;;;5.23;100.00
6565;BME280;3316;44.118;27.258;2022-12-28T06:28:03;102517.97;;;4.87;100.00
6565;BME280;3316;44.118;27.258;2022-12-28T06:30:28;102572.44;;;5.21;100.00
6565;BME280;3316;44.118;27.258;2022-12-28T06:32:57;102561.97;;;5.19;100.00
6565;BME280;3316;44.118;27.258;2022-12-28T06:35:22;102562.09;;;5.22;100.00
6565;BME280;3316;44.118;27.258;2022-12-28T06:37:48;102564.50;;;5.18;100.00
6565;BME280;3316;44.118;27.258;2022-12-28T06:40:14;102563.06;;;5.24;100.00
6565;BME280;3316;44.118;27.258;2022-12-28T06:42:40;102584.28;;;5.54;100.00
6565;BME280;3316;44.118;27.258;2022-12-28T06:45:06;102580.34;;;5.64;100.00
6565;BME280;3316;44.118;27.258;2022-12-28T06:47:32;102578.75;;;5.67;100.00
6565;BME280;3316;44.118;27.258;2022-12-28T06:50:02;102579.97;;;5.55;100.00
6565;BME280;3316;44.118;27.258;2022-12-28T06:52:27;102586.03;;;5.54;100.00
6565;BME280;3316;44.118;27.258;2022-12-28T06:54:52;102576.75;;;5.39;100.00
6565;BME280;3316;44.118;27.258;2022-12-28T06:57:18;102591.56;;;5.40;100.00
6565;BME280;3316;44.118;27.258;2022-12-28T06:59:43;102545.03;;;5.30;100.00
6565;BME280;3316;44.118;27.258;2022-12-28T07:02:09;102605.88;;;5.71;100.00
6565;BME280;3316;44.118;27.258;2022-12-28T07:04:34;102567.63;;;5.51;100.00
6565;BME280;3316;44.118;27.258;2022-12-28T07:07:00;102579.22;;;5.57;100.00
6565;BME280;3316;44.118;27.258;2022-12-28T07:09:25;102605.00;;;5.91;100.00
6565;BME280;3316;44.118;27.258;2022-12-28T07:11:51;102595.66;;;5.97;100.00
6565;BME280;3316;44.118;27.258;2022-12-28T07:14:16;102609.94;;;6.05;100.00
6565;BME280;3316;44.118;27.258;2022-12-28T07:16:43;102600.66;;;5.91;100.00
6565;BME280;3316;44.118;27.258;2022-12-28T07:19:08;102614.75;;;5.95;100.00
6565;BME280;3316;44.118;27.258;2022-12-28T07:21:36;102613.44;;;6.06;100.00
6565;BME280;3316;44.118;27.258;2022-12-28T07:24:02;102607.91;;;6.43;100.00
6565;BME280;3316;44.118;27.258;2022-12-28T07:26:31;102624.41;;;7.11;100.00
6565;BME280;3316;44.118;27.258;2022-12-28T07:28:58;102632.56;;;7.97;100.00
6565;BME280;3316;44.118;27.258;2022-12-28T07:31:26;102644.38;;;7.84;100.00
6565;BME280;3316;44.118;27.258;2022-12-28T07:33:53;102640.78;;;7.56;100.00
6565;BME280;3316;44.118;27.258;2022-12-28T07:36:20;102652.13;;;8.08;100.00
6565;BME280;3316;44.118;27.258;2022-12-28T07:38:46;102639.53;;;7.96;100.00
6565;BME280;3316;44.118;27.258;2022-12-28T07:41:17;102638.91;;;8.03;100.00
6565;BME280;3316;44.118;27.258;2022-12-28T07:43:43;102640.91;;;8.12;100.00
6565;BME280;3316;44.118;27.258;2022-12-28T07:46:16;102642.78;;;8.43;97.47
6565;BME280;3316;44.118;27.258;2022-12-28T07:48:43;102643.16;;;8.27;96.48
6565;BME280;3316;44.118;27.258;2022-12-28T07:51:24;102644.44;;;8.13;96.55
6565;BME280;3316;44.118;27.258;2022-12-28T07:53:51;102645.91;;;8.04;95.29
6565;BME280;3316;44.118;27.258;2022-12-28T07:56:18;102648.34;;;7.72;95.99
6565;BME280;3316;44.118;27.258;2022-12-28T07:58:51;102642.19;;;7.71;95.07
6565;BME280;3316;44.118;27.258;2022-12-28T08:01:19;102642.72;;;7.61;95.98
6565;BME280;3316;44.118;27.258;2022-12-28T08:03:45;102641.78;;;7.59;96.88
6565;BME280;3316;44.118;27.258;2022-12-28T08:06:13;102638.56;;;7.66;95.26
6565;BME280;3316;44.118;27.258;2022-12-28T08:08:41;102649.72;;;7.87;94.98
6565;BME280;3316;44.118;27.258;2022-12-28T08:11:15;102638.25;;;8.10;94.95
6565;BME280;3316;44.118;27.258;2022-12-28T08:13:43;102644.47;;;8.14;92.88
6565;BME280;3316;44.118;27.258;2022-12-28T08:16:11;102625.31;;;8.17;93.24
6565;BME280;3316;44.118;27.258;2022-12-28T08:18:37;102661.94;;;8.13;91.51
6565;BME280;3316;44.118;27.258;2022-12-28T08:21:09;102663.41;;;8.05;88.25
6565;BME280;3316;44.118;27.258;2022-12-28T08:23:35;102655.69;;;8.10;88.99
6565;BME280;3316;44.118;27.258;2022-12-28T08:26:22;102664.22;;;9.17;81.69
6565;BME280;3316;44.118;27.258;2022-12-28T08:28:49;102652.84;;;8.87;78.27
6565;BME280;3316;44.118;27.258;2022-12-28T08:31:20;102665.25;;;8.63;79.54
6565;BME280;3316;44.118;27.258;2022-12-28T08:33:47;102662.78;;;8.67;80.68
6565;BME280;3316;44.118;27.258;2022-12-28T08:36:13;102662.47;;;8.58;80.42
6565;BME280;3316;44.118;27.258;2022-12-28T08:38:39;102652.47;;;8.45;79.61
6565;BME280;3316;44.118;27.258;2022-12-28T08:41:07;102654.88;;;8.38;81.09
6565;BME280;3316;44.118;27.258;2022-12-28T08:43:33;102657.69;;;8.44;81.50
6565;BME280;3316;44.118;27.258;2022-12-28T08:46:00;102653.34;;;8.44;81.64
6565;BME280;3316;44.118;27.258;2022-12-28T08:48:26;102630.47;;;8.40;83.11
6565;BME280;3316;44.118;27.258;2022-12-28T08:50:52;102651.91;;;8.55;80.84
6565;BME280;3316;44.118;27.258;2022-12-28T08:53:18;102646.16;;;8.68;80.29
6565;BME280;3316;44.118;27.258;2022-12-28T08:55:44;102626.88;;;8.66;79.73
6565;BME280;3316;44.118;27.258;2022-12-28T08:58:09;102639.28;;;8.72;81.13
6565;BME280;3316;44.118;27.258;2022-12-28T09:00:35;102632.66;;;8.55;78.20
6565;BME280;3316;44.118;27.258;2022-12-28T09:03:00;102632.75;;;8.30;76.71
6565;BME280;3316;44.118;27.258;2022-12-28T09:05:26;102628.88;;;8.19;74.93
6565;BME280;3316;44.118;27.258;2022-12-28T09:07:51;102601.25;;;8.28;76.18
6565;BME280;3316;44.118;27.258;2022-12-28T09:10:17;102614.31;;;8.56;76.91
6565;BME280;3316;44.118;27.258;2022-12-28T09:12:42;102636.03;;;8.80;73.77
6565;BME280;3316;44.118;27.258;2022-12-28T09:15:08;102613.13;;;9.39;71.23
6565;BME280;3316;44.118;27.258;2022-12-28T09:17:33;102637.84;;;9.45;65.55
6565;BME280;3316;44.118;27.258;2022-12-28T09:19:59;102614.91;;;9.07;66.22
6565;BME280;3316;44.118;27.258;2022-12-28T09:22:24;102636.19;;;9.16;65.87
6565;BME280;3316;44.118;27.258;2022-12-28T09:24:50;102631.22;;;8.95;66.79
6565;BME280;3316;44.118;27.258;2022-12-28T09:27:15;102639.16;;;8.67;67.04
6565;BME280;3316;44.118;27.258;2022-12-28T09:29:41;102636.13;;;8.83;67.03
6565;BME280;3316;44.118;27.258;2022-12-28T09:32:06;102595.31;;;8.63;68.16
6565;BME280;3316;44.118;27.258;2022-12-28T09:34:31;102631.28;;;8.97;64.50
6565;BME280;3316;44.118;27.258;2022-12-28T09:36:57;102623.66;;;8.76;64.88
6565;BME280;3316;44.118;27.258;2022-12-28T09:39:22;102629.50;;;8.97;63.52
6565;BME280;3316;44.118;27.258;2022-12-28T09:42:10;102603.00;;;8.88;63.96
6565;BME280;3316;44.118;27.258;2022-12-28T09:47:52;102613.47;;;9.18;59.79
6565;BME280;3316;44.118;27.258;2022-12-28T09:50:27;102605.00;;;9.28;59.71
6565;BME280;3316;44.118;27.258;2022-12-28T09:55:33;102615.41;;;9.25;60.25
6565;BME280;3316;44.118;27.258;2022-12-28T09:57:59;102601.84;;;9.09;57.60
6565;BME280;3316;44.118;27.258;2022-12-28T10:00:36;102611.66;;;8.84;57.13
6565;BME280;3316;44.118;27.258;2022-12-28T10:03:16;102575.25;;;8.65;57.68
6565;BME280;3316;44.118;27.258;2022-12-28T10:05:43;102604.13;;;8.96;55.57
6565;BME280;3316;44.118;27.258;2022-12-28T10:08:12;102603.31;;;8.99;55.64
6565;BME280;3316;44.118;27.258;2022-12-28T10:10:39;102591.19;;;9.04;56.02
6565;BME280;3316;44.118;27.258;2022-12-28T10:13:23;102607.47;;;9.24;54.03
6565;BME280;3316;44.118;27.258;2022-12-28T10:15:50;102596.28;;;9.31;54.33
6565;BME280;3316;44.118;27.258;2022-12-28T10:18:21;102590.88;;;9.59;53.29
6565;BME280;3316;44.118;27.258;2022-12-28T10:20:47;102601.94;;;10.16;52.04
6565;BME280;3316;44.118;27.258;2022-12-28T10:23:18;102602.81;;;10.55;49.99
6565;BME280;3316;44.118;27.258;2022-12-28T10:25:45;102595.75;;;10.97;48.97
6565;BME280;3316;44.118;27.258;2022-12-28T10:28:12;102595.78;;;11.46;46.00
6565;BME280;3316;44.118;27.258;2022-12-28T10:33:27;102600.06;;;11.40;43.80
6565;BME280;3316;44.118;27.258;2022-12-28T10:35:54;102605.09;;;11.28;45.03
6565;BME280;3316;44.118;27.258;2022-12-28T10:38:26;102605.03;;;11.73;45.08
6565;BME280;3316;44.118;27.258;2022-12-28T10:41:13;102602.72;;;11.92;45.82
6565;BME280;3316;44.118;27.258;2022-12-28T10:43:43;102576.91;;;11.72;47.27
6565;BME280;3316;44.118;27.258;2022-12-28T10:46:17;102578.81;;;11.31;46.00
6565;BME280;3316;44.118;27.258;2022-12-28T10:48:51;102574.56;;;10.91;47.23
6565;BME280;3316;44.118;27.258;2022-12-28T10:51:19;102581.78;;;11.01;47.42
6565;BME280;3316;44.118;27.258;2022-12-28T10:53:47;102574.22;;;11.19;46.66
6565;BME280;3316;44.118;27.258;2022-12-28T10:58:42;102531.59;;;10.49;46.41
6565;BME280;3316;44.118;27.258;2022-12-28T11:04:00;102569.34;;;11.43;45.52
6565;BME280;3316;44.118;27.258;2022-12-28T11:06:56;102562.28;;;13.34;41.62
6565;BME280;3316;44.118;27.258;2022-12-28T11:09:33;102562.44;;;15.42;38.76
6565;BME280;3316;44.118;27.258;2022-12-28T11:12:23;102562.47;;;17.62;33.85
6565;BME280;3316;44.118;27.258;2022-12-28T11:14:49;102556.78;;;17.97;32.99
6565;BME280;3316;44.118;27.258;2022-12-28T11:19:46;102514.13;;;16.97;31.85
6565;BME280;3316;44.118;27.258;2022-12-28T11:22:14;102543.84;;;17.58;31.89
6565;BME280;3316;44.118;27.258;2022-12-28T11:24:41;102537.56;;;16.18;33.04
6565;BME280;3316;44.118;27.258;2022-12-28T11:27:12;102527.91;;;15.33;33.55
6565;BME280;3316;44.118;27.258;2022-12-28T11:29:45;102531.44;;;15.78;33.35
6565;BME280;3316;44.118;27.258;2022-12-28T11:32:26;102541.19;;;15.25;33.68
6565;BME280;3316;44.118;27.258;2022-12-28T11:34:55;102539.41;;;15.36;32.93
6565;BME280;3316;44.118;27.258;2022-12-28T11:37:21;102506.69;;;15.34;33.00
6565;BME280;3316;44.118;27.258;2022-12-28T11:39:48;102540.22;;;16.06;31.59
6565;BME280;3316;44.118;27.258;2022-12-28T11:42:53;102543.72;;;16.32;31.36
6565;BME280;3316;44.118;27.258;2022-12-28T11:45:50;102534.06;;;15.96;31.57
6565;BME280;3316;44.118;27.258;2022-12-28T11:51:33;102529.16;;;18.04;29.60
6565;BME280;3316;44.118;27.258;2022-12-28T11:54:33;102526.06;;;17.64;30.01
6565;BME280;3316;44.118;27.258;2022-12-28T11:59:25;102529.34;;;16.75;29.92
6565;BME280;3316;44.118;27.258;2022-12-28T12:01:52;102524.63;;;17.20;30.19
6565;BME280;3316;44.118;27.258;2022-12-28T12:04:32;102529.03;;;17.22;29.65
6565;BME280;3316;44.118;27.258;2022-12-28T12:15:15;102515.91;;;16.95;30.45
6565;BME280;3316;44.118;27.258;2022-12-28T12:17:46;102508.84;;;16.96;29.96
6565;BME280;3316;44.118;27.258;2022-12-28T12:22:51;102510.19;;;15.78;32.24
6565;BME280;3316;44.118;27.258;2022-12-28T12:25:31;102509.34;;;15.67;32.01
6565;BME280;3316;44.118;27.258;2022-12-28T12:28:08;102509.31;;;15.02;33.02
6565;BME280;3316;44.118;27.258;2022-12-28T12:30:35;102515.09;;;13.94;34.64
6565;BME280;3316;44.118;27.258;2022-12-28T12:33:05;102495.44;;;13.58;35.50
6565;BME280;3316;44.118;27.258;2022-12-28T12:35:48;102520.22;;;13.70;35.72
6565;BME280;3316;44.118;27.258;2022-12-28T12:38:30;102526.38;;;13.65;35.43
6565;BME280;3316;44.118;27.258;2022-12-28T12:49:34;102528.03;;;11.41;38.63
6565;BME280;3316;44.118;27.258;2022-12-28T12:58:45;102509.53;;;10.02;41.58
6565;BME280;3316;44.118;27.258;2022-12-28T13:04:03;102507.22;;;10.16;41.98
6565;BME280;3316;44.118;27.258;2022-12-28T13:06:32;102471.69;;;9.96;41.97
6565;BME280;3316;44.118;27.258;2022-12-28T13:09:01;102492.38;;;10.19;42.63
6565;BME280;3316;44.118;27.258;2022-12-28T13:11:28;102497.16;;;10.38;42.30
6565;BME280;3316;44.118;27.258;2022-12-28T13:13:55;102491.91;;;10.40;42.67
6565;BME280;3316;44.118;27.258;2022-12-28T13:16:23;102489.66;;;10.58;41.74
6565;BME280;3316;44.118;27.258;2022-12-28T13:18:57;102477.16;;;10.46;42.82
6565;BME280;3316;44.118;27.258;2022-12-28T13:21:24;102480.44;;;10.36;41.95
6565;BME280;3316;44.118;27.258;2022-12-28T13:23:51;102475.03;;;10.29;42.25
6565;BME280;3316;44.118;27.258;2022-12-28T13:26:28;102476.84;;;10.31;42.39
6565;BME280;3316;44.118;27.258;2022-12-28T13:28:59;102476.97;;;10.37;42.21
6565;BME280;3316;44.118;27.258;2022-12-28T13:31:33;102492.56;;;10.28;42.04
6565;BME280;3316;44.118;27.258;2022-12-28T13:34:23;102492.53;;;10.27;42.95
6565;BME280;3316;44.118;27.258;2022-12-28T13:39:13;102491.38;;;10.14;43.54
6565;BME280;3316;44.118;27.258;2022-12-28T13:42:02;102491.31;;;10.10;43.80
6565;BME280;3316;44.118;27.258;2022-12-28T13:47:18;102478.03;;;10.07;44.13
6565;BME280;3316;44.118;27.258;2022-12-28T13:50:07;102444.34;;;9.87;43.98
6565;BME280;3316;44.118;27.258;2022-12-28T13:55:16;102469.69;;;9.85;44.94
6565;BME280;3316;44.118;27.258;2022-12-28T13:57:46;102469.50;;;9.76;45.00
6565;BME280;3316;44.118;27.258;2022-12-28T14:00:19;102450.66;;;9.57;45.69
6565;BME280;3316;44.118;27.258;2022-12-28T14:02:46;102472.72;;;9.63;45.68
6565;BME280;3316;44.118;27.258;2022-12-28T14:05:17;102464.16;;;9.72;45.48
6565;BME280;3316;44.118;27.258;2022-12-28T14:07:43;102456.25;;;9.72;45.17
6565;BME280;3316;44.118;27.258;2022-12-28T14:10:10;102466.59;;;9.64;46.03
6565;BME280;3316;44.118;27.258;2022-12-28T14:12:36;102460.06;;;9.46;46.60
6565;BME280;3316;44.118;27.258;2022-12-28T14:15:03;102446.81;;;9.41;45.86
6565;BME280;3316;44.118;27.258;2022-12-28T14:17:29;102432.66;;;9.36;45.86
6565;BME280;3316;44.118;27.258;2022-12-28T14:19:55;102460.16;;;9.52;46.64
6565;BME280;3316;44.118;27.258;2022-12-28T14:22:35;102461.38;;;9.29;47.62
6565;BME280;3316;44.118;27.258;2022-12-28T14:27:42;102464.44;;;9.11;47.73
6565;BME280;3316;44.118;27.258;2022-12-28T14:30:23;102464.22;;;9.02;48.49
6565;BME280;3316;44.118;27.258;2022-12-28T14:32:50;102462.00;;;8.83;50.16
6565;BME280;3316;44.118;27.258;2022-12-28T14:35:25;102464.34;;;8.74;50.87
6565;BME280;3316;44.118;27.258;2022-12-28T14:37:56;102456.84;;;8.55;51.21
6565;BME280;3316;44.118;27.258;2022-12-28T14:40:29;102446.75;;;8.37;51.71
6565;BME280;3316;44.118;27.258;2022-12-28T14:42:55;102469.81;;;8.49;52.17
6565;BME280;3316;44.118;27.258;2022-12-28T14:45:29;102486.00;;;8.33;52.77
6565;BME280;3316;44.118;27.258;2022-12-28T14:47:59;102469.69;;;8.15;53.69
6565;BME280;3316;44.118;27.258;2022-12-28T14:50:29;102472.97;;;8.07;55.12
6565;BME280;3316;44.118;27.258;2022-12-28T14:56:14;102480.09;;;7.82;55.92
6565;BME280;3316;44.118;27.258;2022-12-28T14:58:31;102491.66;;;7.90;56.41